Time;durP1;ratioP1;P1;durP2;ratioP2;P2;SDS_P1;SDS_P2;PMS_P1;PMS_P2;Temp;Humidity;BMP_temperature;BMP_pressure;BME280_temperature;BME280_humidity;BME280_pressure;Samples;Min_cycle;Max_cycle;Signal;HPM_P1;HPM_P2
2023/09/29 00:04:20;;;;;;;6.22;4.68;;;;;;;23.76;51.52;102140.69;20993032;28;20541;-61
2023/09/29 00:14:21;;;;;;;6.78;5.15;;;;;;;23.76;51.49;102135.09;21051261;28;20040;-61
2023/09/29 00:24:25;;;;;;;6.07;4.80;;;;;;;23.75;51.63;102136.22;21063845;28;20037;-62
2023/09/29 00:34:27;;;;;;;7.15;5.28;;;;;;;23.75;51.62;102127.84;21056284;28;20182;-61
2023/09/29 00:44:28;;;;;;;5.47;4.22;;;;;;;23.71;51.66;102126.69;21031048;28;20032;-61
2023/09/29 00:54:32;;;;;;;5.65;5.00;;;;;;;23.76;51.55;102145.44;21029859;28;20032;-60
2023/09/29 01:04:34;;;;;;;6.60;4.82;;;;;;;23.64;51.59;102116.81;21047172;28;20419;-60
2023/09/29 01:14:35;;;;;;;6.30;4.35;;;;;;;23.73;51.59;102124.47;21044503;28;20040;-60
2023/09/29 01:24:37;;;;;;;7.28;5.05;;;;;;;23.73;51.72;102132.88;21058404;28;20036;-62
2023/09/29 01:34:38;;;;;;;6.00;5.10;;;;;;;23.73;51.62;102124.47;20913718;28;4606383;-60
2023/09/29 01:44:39;;;;;;;5.43;4.78;;;;;;;23.72;51.58;102122.78;21055237;28;20044;-60
2023/09/29 01:54:44;;;;;;;7.45;5.53;;;;;;;23.70;51.53;102122.22;21077351;28;20052;-59
2023/09/29 02:04:47;;;;;;;5.90;4.53;;;;;;;23.73;51.76;102109.63;21045774;28;20039;-61
2023/09/29 02:14:51;;;;;;;7.15;5.80;;;;;;;23.73;51.74;102120.81;21042262;28;20031;-59
2023/09/29 02:24:52;;;;;;;7.95;5.30;;;;;;;23.72;52.03;102097.63;21072174;28;20490;-61
2023/09/29 02:34:55;;;;;;;9.82;6.13;;;;;;;23.71;52.14;102104.34;21074099;28;20069;-58
2023/09/29 02:44:57;;;;;;;9.85;6.40;;;;;;;23.73;52.13;102095.66;21060476;28;20056;-59
2023/09/29 02:54:59;;;;;;;10.68;6.03;;;;;;;23.72;52.56;102072.47;21058637;28;20548;-60
2023/09/29 03:05:00;;;;;;;12.63;7.13;;;;;;;23.70;52.77;102049.56;21067556;28;20040;-61
2023/09/29 03:15:02;;;;;;;9.57;6.18;;;;;;;23.73;53.03;102051.81;21074938;28;20067;-61
2023/09/29 03:25:04;;;;;;;13.10;6.30;;;;;;;23.67;53.23;102057.66;21071495;28;20105;-60
2023/09/29 03:35:08;;;;;;;10.90;6.32;;;;;;;23.74;53.43;102069.41;21068211;28;20040;-60
2023/09/29 03:45:11;;;;;;;9.55;5.97;;;;;;;23.74;53.55;102061.88;21052237;28;20097;-60
2023/09/29 03:55:14;;;;;;;8.30;6.30;;;;;;;23.74;53.64;102055.44;21072515;28;20070;-61
2023/09/29 04:05:18;;;;;;;7.47;5.63;;;;;;;23.74;53.74;102045.09;21027530;28;20044;-59
2023/09/29 04:15:27;;;;;;;8.57;5.80;;;;;;;23.75;53.82;102038.41;21073064;28;20044;-59
2023/09/29 04:25:28;;;;;;;8.30;5.90;;;;;;;23.77;53.98;102041.75;21012476;28;20462;-59
2023/09/29 04:35:30;;;;;;;9.20;6.25;;;;;;;23.77;54.08;102036.16;21014737;28;20044;-59
2023/09/29 04:45:33;;;;;;;9.70;5.93;;;;;;;23.78;54.12;102020.25;21089381;28;20048;-59
2023/09/29 04:55:35;;;;;;;9.38;5.47;;;;;;;23.66;54.38;102000.91;21079989;28;20048;-59
2023/09/29 05:05:37;;;;;;;8.18;6.22;;;;;;;23.72;54.37;102005.41;21075067;28;20549;-59
2023/09/29 05:15:38;;;;;;;9.48;5.82;;;;;;;23.77;54.56;102008.19;21011701;28;20553;-59
2023/09/29 05:25:47;;;;;;;9.10;6.25;;;;;;;23.80;54.54;102002.06;21035715;28;20043;-60
2023/09/29 05:35:48;;;;;;;8.32;6.03;;;;;;;23.82;54.94;101994.28;21084944;28;20105;-60
2023/09/29 05:45:49;;;;;;;8.23;6.03;;;;;;;23.83;55.06;101995.09;21079373;28;20044;-60
2023/09/29 05:55:51;;;;;;;8.98;5.60;;;;;;;23.83;55.17;101978.34;21084065;28;20040;-58
2023/09/29 06:05:52;;;;;;;8.95;5.60;;;;;;;23.84;54.96;101966.03;21041921;28;20047;-60
2023/09/29 06:15:59;;;;;;;7.85;5.75;;;;;;;23.72;54.77;101927.16;21080317;28;20036;-59
2023/09/29 06:26:01;;;;;;;7.97;5.77;;;;;;;23.85;54.85;101945.34;21046653;28;20067;-59
2023/09/29 06:36:02;;;;;;;9.90;6.38;;;;;;;23.86;55.02;101921.84;20997542;28;20098;-60
2023/09/29 06:46:04;;;;;;;9.27;6.47;;;;;;;23.86;55.22;101916.28;21068846;28;20044;-59
2023/09/29 06:56:08;;;;;;;8.05;5.78;;;;;;;23.86;54.98;101890.28;21080890;28;20105;-59
2023/09/29 07:06:09;;;;;;;7.40;5.70;;;;;;;23.86;55.22;101895.88;21033499;28;20044;-58
2023/09/29 07:16:10;;;;;;;7.35;6.10;;;;;;;23.86;55.14;101899.50;21077984;28;20040;-59
2023/09/29 07:26:15;;;;;;;8.48;5.57;;;;;;;23.84;55.51;101913.75;21076676;28;20044;-60
2023/09/29 07:36:16;;;;;;;6.78;5.35;;;;;;;23.87;55.42;101889.16;21064259;28;20069;-59
2023/09/29 07:46:18;;;;;;;10.98;5.90;;;;;;;23.81;55.42;101877.13;21086186;28;20044;-59
2023/09/29 07:56:19;;;;;;;8.40;5.85;;;;;;;23.88;55.23;101879.69;21075014;28;20475;-60
2023/09/29 08:06:22;;;;;;;8.05;5.57;;;;;;;23.79;55.53;101871.00;21050380;28;20102;-60
2023/09/29 08:16:24;;;;;;;6.55;4.88;;;;;;;23.86;55.19;101888.31;21072162;28;20048;-61
2023/09/29 08:26:25;;;;;;;7.03;5.20;;;;;;;23.88;55.11;101874.09;21088300;28;20051;-58
2023/09/29 08:36:26;;;;;;;8.77;5.50;;;;;;;23.88;55.51;101877.72;21082150;28;20090;-59
2023/09/29 08:46:29;;;;;;;7.53;5.00;;;;;;;23.89;55.40;101870.16;21090721;28;20484;-59
2023/09/29 08:56:31;;;;;;;7.38;5.38;;;;;;;23.87;54.83;101855.59;21054669;28;20044;-59
2023/09/29 09:06:32;;;;;;;6.70;5.22;;;;;;;23.82;54.21;101848.94;21044921;28;20044;-59
2023/09/29 09:16:36;;;;;;;6.80;5.53;;;;;;;23.84;54.23;101854.22;21087443;28;20048;-59
2023/09/29 09:26:37;;;;;;;5.93;4.85;;;;;;;23.82;54.38;101848.94;21082536;28;20396;-59
2023/09/29 09:36:50;;;;;;;6.65;5.03;;;;;;;23.80;54.19;101850.31;21085491;28;20094;-59
2023/09/29 09:47:10;;;;;;;8.23;5.85;;;;;;;23.82;54.19;101853.66;21078388;28;20048;-59
2023/09/29 09:57:13;;;;;;;6.40;4.75;;;;;;;23.81;54.43;101843.59;21077238;28;20035;-59
2023/09/29 10:07:15;;;;;;;7.57;5.57;;;;;;;23.80;54.55;101848.34;21045268;28;20040;-59
2023/09/29 10:17:16;;;;;;;6.40;4.75;;;;;;;23.82;54.55;101854.53;21081312;28;20040;-59
2023/09/29 10:27:33;;;;;;;5.43;4.53;;;;;;;23.66;54.19;101863.16;21080080;28;20040;-59
2023/09/29 10:37:41;;;;;;;6.03;4.35;;;;;;;23.64;54.59;101851.38;21053385;28;20089;-60
2023/09/29 10:47:45;;;;;;;5.93;4.57;;;;;;;23.79;54.51;101885.81;21075371;28;20048;-61
2023/09/29 10:57:47;;;;;;;6.63;4.75;;;;;;;23.79;54.41;101873.78;21062627;28;20090;-59
2023/09/29 11:07:50;;;;;;;5.75;4.55;;;;;;;23.79;54.54;101888.59;21042377;28;20101;-60
2023/09/29 11:17:51;;;;;;;6.22;4.70;;;;;;;23.80;54.57;101895.88;21065839;28;20081;-60
2023/09/29 11:27:53;;;;;;;5.22;4.32;;;;;;;23.78;54.30;101888.91;21061238;28;20559;-58
2023/09/29 11:37:55;;;;;;;5.50;4.35;;;;;;;23.78;54.35;101909.28;21063468;28;20040;-59
2023/09/29 11:47:57;;;;;;;4.95;3.88;;;;;;;23.78;54.37;101903.69;21058456;28;20077;-59
2023/09/29 11:57:58;;;;;;;5.53;4.20;;;;;;;23.77;54.30;101913.19;21072491;28;20036;-59
2023/09/29 12:08:00;;;;;;;6.50;4.38;;;;;;;23.74;53.88;101891.41;21023031;28;20047;-59
2023/09/29 12:18:05;;;;;;;4.50;3.90;;;;;;;23.75;54.19;101892.22;21048431;28;20097;-58
2023/09/29 12:28:09;;;;;;;5.28;3.67;;;;;;;23.74;54.08;101888.59;21012533;28;20048;-59
2023/09/29 12:38:13;;;;;;;5.65;3.72;;;;;;;23.74;53.99;101913.75;21057305;28;20044;-59
2023/09/29 12:48:14;;;;;;;6.13;3.95;;;;;;;23.74;54.03;101924.09;21053238;28;20056;-60
2023/09/29 12:58:15;;;;;;;4.65;3.60;;;;;;;23.72;54.11;101915.97;21073268;28;20048;-58
2023/09/29 13:08:17;;;;;;;4.50;3.30;;;;;;;23.66;54.05;101905.06;21054093;28;20461;-59
2023/09/29 13:18:19;;;;;;;4.10;3.47;;;;;;;23.72;54.03;101910.38;21039774;28;20097;-58
2023/09/29 13:28:20;;;;;;;5.82;3.22;;;;;;;23.73;54.62;101911.22;21085302;28;20093;-60
2023/09/29 13:38:24;;;;;;;5.15;3.50;;;;;;;23.74;54.86;101922.13;21080989;28;20044;-60
2023/09/29 13:48:26;;;;;;;5.75;3.00;;;;;;;23.76;54.87;101919.88;21080704;28;20048;-59
2023/09/29 13:58:27;;;;;;;8.52;3.28;;;;;;;23.70;54.91;101915.41;21076058;28;20043;-60
2023/09/29 14:08:33;;;;;;;7.00;3.58;;;;;;;23.59;54.83;101905.28;21065046;28;20044;-60
2023/09/29 14:18:35;;;;;;;6.20;3.35;;;;;;;23.72;54.74;101907.59;21054478;28;20043;-60
2023/09/29 14:28:39;;;;;;;4.47;2.90;;;;;;;23.71;54.81;101908.72;21079570;28;20040;-61
2023/09/29 14:38:40;;;;;;;4.43;2.70;;;;;;;23.72;54.49;101907.59;21081118;28;20082;-60
2023/09/29 14:48:42;;;;;;;5.57;2.50;;;;;;;23.72;54.93;101909.53;21080773;28;20070;-61
2023/09/29 14:58:53;;;;;;;10.20;3.03;;;;;;;23.72;54.75;101913.19;21081104;28;20036;-60
2023/09/29 15:08:56;;;;;;;4.43;2.50;;;;;;;23.72;54.72;101915.97;21067359;28;20040;-59
2023/09/29 15:18:59;;;;;;;3.22;2.38;;;;;;;23.72;54.70;101909.53;21073459;28;20024;-60
2023/09/29 15:29:00;;;;;;;4.13;2.28;;;;;;;23.73;54.74;101900.03;21073128;28;20063;-60
2023/09/29 15:39:03;;;;;;;3.15;2.22;;;;;;;23.72;54.89;101882.44;21048173;28;20056;-61
2023/09/29 15:49:05;;;;;;;3.40;2.70;;;;;;;23.72;55.18;101899.19;21061815;28;20048;-61
2023/09/29 15:59:09;;;;;;;3.90;2.55;;;;;;;23.73;55.50;101889.72;21013687;28;20036;-60
2023/09/29 16:09:10;;;;;;;4.05;2.55;;;;;;;23.74;55.90;101902.56;21021192;28;20048;-59
2023/09/29 16:19:12;;;;;;;3.70;2.47;;;;;;;23.75;56.05;101915.44;21047350;28;20453;-59
2023/09/29 16:29:16;;;;;;;3.42;2.30;;;;;;;23.75;56.08;101904.25;21069470;28;20406;-59
2023/09/29 16:39:17;;;;;;;3.72;2.53;;;;;;;23.74;56.06;101885.81;21091485;28;20032;-60
2023/09/29 16:49:22;;;;;;;4.90;2.58;;;;;;;23.74;56.18;101869.03;21068565;28;20032;-59
2023/09/29 16:59:23;;;;;;;3.55;2.20;;;;;;;23.75;56.20;101859.53;21076070;28;20599;-59
2023/09/29 17:09:24;;;;;;;7.38;2.85;;;;;;;23.75;56.21;101837.16;21086676;28;20105;-60
2023/09/29 17:19:28;;;;;;;5.10;2.40;;;;;;;23.76;56.20;101841.63;21014933;28;20048;-59
2023/09/29 17:29:29;;;;;;;5.97;2.20;;;;;;;23.77;55.92;101823.75;21076505;28;20340;-59
2023/09/29 17:39:31;;;;;;;4.10;2.58;;;;;;;23.78;56.14;101825.44;21077574;28;20036;-58
2023/09/29 17:49:32;;;;;;;4.25;2.20;;;;;;;23.79;56.16;101813.13;21064029;28;20483;-59
2023/09/29 17:59:34;;;;;;;5.20;1.80;;;;;;;23.79;56.16;101798.34;21079859;28;20387;-60
2023/09/29 18:09:40;;;;;;;3.92;1.80;;;;;;;23.67;55.92;101767.88;21079741;28;20097;-59
2023/09/29 18:19:44;;;;;;;6.82;2.10;;;;;;;23.81;56.26;101768.97;21078171;28;20052;-60
2023/09/29 18:29:45;;;;;;;4.22;2.03;;;;;;;23.81;56.13;101746.59;21073391;28;20105;-59
2023/09/29 18:39:47;;;;;;;6.35;1.55;;;;;;;23.74;56.13;101745.25;21072001;28;20044;-60
2023/09/29 18:49:48;;;;;;;2.80;1.60;;;;;;;23.84;55.94;101757.25;21077386;28;20048;-58
2023/09/29 18:59:50;;;;;;;3.38;1.65;;;;;;;23.81;56.08;101741.03;21066762;28;20032;-60
2023/09/29 19:09:51;;;;;;;6.75;1.92;;;;;;;23.71;55.97;101713.09;21072391;28;20036;-59
2023/09/29 19:19:56;;;;;;;5.15;2.15;;;;;;;23.83;55.95;101747.19;21078357;28;20086;-61
2023/09/29 19:30:00;;;;;;;2.35;1.63;;;;;;;23.84;55.82;101743.25;21064345;28;20109;-59
2023/09/29 19:40:04;;;;;;;3.00;1.90;;;;;;;23.82;55.98;101736.25;21077074;28;20040;-59
2023/09/29 19:50:06;;;;;;;3.45;1.75;;;;;;;23.72;56.62;101713.94;21054665;28;20493;-59
2023/09/29 20:00:10;;;;;;;4.25;1.67;;;;;;;23.83;56.82;101740.75;21064428;28;20040;-59
2023/09/29 20:10:15;;;;;;;5.72;2.17;;;;;;;23.83;57.02;101749.97;21083036;28;20379;-59
2023/09/29 20:20:16;;;;;;;3.80;1.77;;;;;;;23.81;56.74;101745.78;21088387;28;20044;-60
2023/09/29 20:30:18;;;;;;;5.78;1.92;;;;;;;23.83;56.66;101749.97;21066022;28;20934;-59
2023/09/29 20:40:19;;;;;;;3.95;1.88;;;;;;;23.82;56.74;101750.25;21068010;28;20040;-60
2023/09/29 20:50:21;;;;;;;3.63;1.85;;;;;;;23.83;56.79;101747.19;21085935;28;20395;-60
2023/09/29 21:00:22;;;;;;;3.70;2.05;;;;;;;23.83;56.71;101763.94;21090494;28;20040;-59
2023/09/29 21:10:24;;;;;;;4.03;2.10;;;;;;;23.83;56.66;101772.34;21087569;28;20047;-60
2023/09/29 21:20:25;;;;;;;2.70;1.75;;;;;;;23.83;56.91;101775.13;21069272;28;20074;-60
2023/09/29 21:30:29;;;;;;;3.72;1.90;;;;;;;23.84;58.12;101785.19;21070586;28;20043;-60
2023/09/29 21:40:30;;;;;;;5.22;1.95;;;;;;;23.84;58.26;101765.63;21079305;28;20153;-60
2023/09/29 21:50:32;;;;;;;64.47;6.30;;;;;;;23.88;60.01;101767.88;21058566;28;20043;-60
2023/09/29 22:00:39;;;;;;;15.52;2.83;;;;;;;23.93;60.30;101776.25;21058726;28;20057;-60
2023/09/29 22:10:40;;;;;;;11.93;2.03;;;;;;;23.91;59.88;101770.91;21060235;28;20048;-61
2023/09/29 22:20:42;;;;;;;9.75;2.00;;;;;;;23.92;59.87;101777.38;21067021;28;20109;-61
2023/09/29 22:30:44;;;;;;;5.78;2.30;;;;;;;23.92;59.84;101777.38;21066598;28;20042;-61
2023/09/29 22:40:46;;;;;;;3.35;1.90;;;;;;;23.86;59.79;101770.09;21060850;28;20410;-61
2023/09/29 22:50:48;;;;;;;3.28;1.88;;;;;;;23.91;59.72;101773.72;21076921;28;20051;-60
2023/09/29 23:00:49;;;;;;;8.18;2.33;;;;;;;23.87;59.43;101783.81;21077100;28;20063;-61
2023/09/29 23:10:51;;;;;;;6.45;1.85;;;;;;;23.83;59.17;101797.50;21017565;28;20406;-60
2023/09/29 23:20:52;;;;;;;2.47;1.75;;;;;;;23.92;59.01;101805.31;21027170;28;20044;-62
2023/09/29 23:30:58;;;;;;;6.80;2.30;;;;;;;23.92;59.00;101808.13;21011961;28;20036;-62
2023/09/29 23:41:06;;;;;;;2.17;1.65;;;;;;;23.91;58.74;101817.59;21063607;28;20055;-62
2023/09/29 23:51:07;;;;;;;3.28;1.67;;;;;;;23.92;58.87;101831.31;21060078;28;20035;-64
